Time;durP1;ratioP1;P1;durP2;ratioP2;P2;SDS_P1;SDS_P2;PMS_P1;PMS_P2;Temp;Humidity;BMP_temperature;BMP_pressure;BME280_temperature;BME280_humidity;BME280_pressure;Samples;Min_cycle;Max_cycle;Signal;HPM_P1;HPM_P2
2021/01/24 00:00:11;;;;;;;17.70;15.50;;;;;;;3.30;69.46;98602.58;125866;1127;22425;-77
2021/01/24 00:03:03;;;;;;;18.82;15.93;;;;;;;3.26;69.43;98591.63;125926;1127;22422;-76
2021/01/24 00:05:31;;;;;;;18.55;16.27;;;;;;;3.22;70.21;98579.89;125853;1124;22704;-75
2021/01/24 00:08:01;;;;;;;18.92;16.97;;;;;;;3.21;69.58;98580.88;125775;1124;22422;-75
2021/01/24 00:10:30;;;;;;;18.12;15.48;;;;;;;3.24;70.45;98584.97;125777;1124;22422;-75
2021/01/24 00:12:58;;;;;;;21.25;15.60;;;;;;;3.27;69.63;98580.23;125611;1124;22473;-75
2021/01/24 00:15:26;;;;;;;19.75;16.30;;;;;;;3.32;69.99;98581.53;125392;1124;22418;-75
2021/01/24 00:17:54;;;;;;;19.82;17.73;;;;;;;3.33;70.51;98583.95;125617;1124;22458;-76
2021/01/24 00:20:22;;;;;;;18.10;15.08;;;;;;;3.32;69.54;98594.58;125619;1127;22398;-76
2021/01/24 00:22:51;;;;;;;22.82;17.52;;;;;;;3.26;69.55;98594.23;125452;1124;22435;-76
2021/01/24 00:25:19;;;;;;;20.43;17.77;;;;;;;3.20;69.18;98592.31;125481;1124;22425;-76
2021/01/24 00:27:47;;;;;;;21.37;17.77;;;;;;;3.17;69.67;98586.61;125612;1124;22428;-76
2021/01/24 00:30:18;;;;;;;19.55;17.07;;;;;;;3.17;70.35;98591.82;125542;1124;24290;-76
2021/01/24 00:32:46;;;;;;;21.12;17.40;;;;;;;3.17;70.32;98578.78;125618;1124;22446;-76
2021/01/24 00:35:16;;;;;;;20.23;17.92;;;;;;;3.18;70.01;98580.40;125481;1126;23205;-76
2021/01/24 00:37:44;;;;;;;20.40;18.27;;;;;;;3.18;70.05;98575.18;125485;1127;22443;-76
2021/01/24 00:40:13;;;;;;;23.10;19.37;;;;;;;3.16;69.76;98567.50;125625;1124;22437;-76
2021/01/24 00:42:41;;;;;;;25.00;18.75;;;;;;;3.16;70.44;98558.86;125601;1127;22446;-76
2021/01/24 00:45:11;;;;;;;20.25;18.23;;;;;;;3.17;69.85;98557.91;125445;1126;22522;-76
2021/01/24 00:47:39;;;;;;;21.42;18.07;;;;;;;3.20;70.36;98560.16;125634;1125;22443;-76
2021/01/24 00:50:09;;;;;;;22.30;19.30;;;;;;;3.21;69.80;98556.59;125672;1124;24622;-77
2021/01/24 00:52:37;;;;;;;23.30;20.80;;;;;;;3.23;69.76;98563.28;125499;1127;22434;-77
2021/01/24 00:55:07;;;;;;;21.90;19.12;;;;;;;3.24;70.51;98572.73;125630;1127;22446;-76
2021/01/24 00:57:35;;;;;;;24.63;21.70;;;;;;;3.22;70.17;98569.45;125625;1126;22452;-76
2021/01/24 01:00:08;;;;;;;26.12;22.05;;;;;;;3.21;69.87;98561.81;125614;1124;22420;-76
2021/01/24 01:02:36;;;;;;;;;;;;;;;3.17;70.39;98560.52;125495;1126;23244;-76
2021/01/24 01:05:06;;;;;;;22.67;20.35;;;;;;;3.13;70.37;98559.19;125593;1126;21784;-76
2021/01/24 01:07:34;;;;;;;25.52;21.35;;;;;;;3.13;69.86;98560.00;125481;1124;24546;-77
2021/01/24 01:10:03;;;;;;;26.17;22.87;;;;;;;3.13;69.91;98565.22;125460;1127;24365;-77
2021/01/24 01:12:32;;;;;;;25.17;21.62;;;;;;;3.17;70.89;98557.91;125450;1126;22525;-77
2021/01/24 01:15:00;;;;;;;25.68;22.10;;;;;;;3.20;70.93;98561.00;125474;1127;22428;-77
2021/01/24 01:17:28;;;;;;;24.70;20.90;;;;;;;3.25;70.13;98555.27;125629;1126;22596;-77
2021/01/24 01:19:57;;;;;;;24.07;21.23;;;;;;;3.27;70.16;98559.35;125423;1124;24288;-77
2021/01/24 01:22:25;;;;;;;25.48;22.80;;;;;;;3.25;69.98;98556.08;125681;1126;22438;-77
2021/01/24 01:24:53;;;;;;;26.73;23.05;;;;;;;3.21;70.51;98551.37;125645;1127;22473;-77
2021/01/24 01:27:21;;;;;;;24.30;21.75;;;;;;;3.17;70.68;98553.49;125639;1126;24218;-77
2021/01/24 01:29:49;;;;;;;25.92;23.02;;;;;;;3.17;70.48;98553.49;125634;1124;22424;-77
2021/01/24 01:32:17;;;;;;;25.37;22.80;;;;;;;3.18;70.16;98556.91;125655;1124;22409;-77
2021/01/24 01:34:45;;;;;;;25.60;22.90;;;;;;;3.20;70.14;98555.78;125398;1124;24545;-77
2021/01/24 01:37:14;;;;;;;24.27;20.27;;;;;;;3.22;70.81;98548.58;125417;1124;22438;-76
2021/01/24 01:39:44;;;;;;;22.98;20.57;;;;;;;3.23;71.01;98552.84;125464;1124;22443;-75
2021/01/24 01:42:16;;;;;;;21.07;18.87;;;;;;;3.21;70.15;98552.18;125616;1124;22434;-76
2021/01/24 01:44:45;;;;;;;;;;;;;;;3.15;70.72;98542.39;125481;1127;22425;-75
2021/01/24 01:47:23;;;;;;;22.52;19.40;;;;;;;3.05;70.87;98542.56;125478;1126;21403;-76
2021/01/24 01:49:57;;;;;;;22.13;18.98;;;;;;;2.98;71.05;98538.98;125530;1124;24230;-77
2021/01/24 01:52:28;;;;;;;24.53;21.33;;;;;;;2.95;70.34;98541.11;125462;1124;22463;-76
2021/01/24 01:54:57;;;;;;;25.43;21.83;;;;;;;2.99;71.07;98545.01;125445;1126;22438;-76
2021/01/24 01:57:26;;;;;;;25.93;21.93;;;;;;;3.03;71.60;98551.52;125426;1126;22482;-77
2021/01/24 01:59:54;;;;;;;29.30;22.43;;;;;;;3.05;71.41;98549.58;125484;1124;23191;-77
2021/01/24 02:03:15;;;;;;;25.10;22.58;;;;;;;3.06;70.93;98541.58;125475;1127;22404;-76
2021/01/24 02:06:07;;;;;;;25.77;23.07;;;;;;;3.02;70.51;98535.06;125458;1124;24543;-76
2021/01/24 02:09:03;;;;;;;26.20;23.38;;;;;;;2.99;71.08;98522.34;125625;1125;22423;-76
2021/01/24 02:12:14;;;;;;;27.25;24.35;;;;;;;2.95;70.58;98518.44;125573;1125;22761;-76
2021/01/24 02:15:01;;;;;;;27.10;23.62;;;;;;;2.94;71.14;98522.03;125532;1124;24834;-76
2021/01/24 02:17:36;;;;;;;26.23;23.40;;;;;;;2.94;71.45;98523.83;125535;1126;22488;-76
2021/01/24 02:20:09;;;;;;;25.68;23.15;;;;;;;2.96;71.12;98517.45;125612;1126;22510;-76
2021/01/24 02:22:40;;;;;;;27.10;24.15;;;;;;;3.00;70.91;98529.21;125656;1125;22445;-76
2021/01/24 02:25:39;;;;;;;24.72;22.15;;;;;;;3.04;71.47;98525.29;125609;1125;22420;-76
2021/01/24 02:28:24;;;;;;;25.20;22.45;;;;;;;3.06;71.34;98522.50;125656;1126;22872;-76
2021/01/24 02:30:55;;;;;;;25.02;22.20;;;;;;;3.03;71.15;98521.06;125587;1126;22446;-76
2021/01/24 02:33:27;;;;;;;25.27;22.58;;;;;;;3.03;71.62;98523.67;125389;1125;22424;-75
2021/01/24 02:35:59;;;;;;;25.77;23.15;;;;;;;3.01;71.67;98519.59;125542;1126;22443;-78
2021/01/24 02:38:28;;;;;;;24.37;21.55;;;;;;;3.01;71.34;98517.79;125595;1124;22522;-75
2021/01/24 02:40:58;;;;;;;24.80;21.27;;;;;;;3.03;70.92;98518.45;125442;1124;24281;-78
2021/01/24 02:43:27;;;;;;;26.35;23.55;;;;;;;3.05;70.78;98513.86;125556;1124;22420;-75
2021/01/24 02:45:56;;;;;;;23.75;21.30;;;;;;;3.08;70.89;98530.98;125454;1124;24284;-76
2021/01/24 02:48:24;;;;;;;22.22;19.50;;;;;;;3.10;71.51;98538.64;125513;1126;22467;-76
2021/01/24 02:50:52;;;;;;;23.12;20.05;;;;;;;3.13;71.79;98536.52;125447;1126;22501;-75
2021/01/24 02:53:22;;;;;;;24.12;19.87;;;;;;;3.15;71.06;98537.17;125448;1126;22436;-76
2021/01/24 02:55:51;;;;;;;22.98;19.70;;;;;;;3.15;71.71;98541.59;125467;1126;22522;-76
2021/01/24 02:58:19;;;;;;;21.90;19.70;;;;;;;3.14;71.59;98538.16;125429;1129;22429;-76
2021/01/24 03:00:47;;;;;;;22.52;20.30;;;;;;;3.12;71.55;98531.47;125446;1127;22425;-76
2021/01/24 03:03:15;;;;;;;22.77;20.50;;;;;;;3.11;70.82;98532.47;125552;1126;22429;-76
2021/01/24 03:05:44;;;;;;;24.30;20.88;;;;;;;3.10;71.40;98534.27;125592;1126;23364;-76
2021/01/24 03:08:13;;;;;;;24.40;21.82;;;;;;;3.10;71.18;98530.81;125665;1125;22424;-76
2021/01/24 03:10:41;;;;;;;24.18;21.77;;;;;;;3.11;70.89;98525.45;125500;1126;22545;-76
2021/01/24 03:13:17;;;;;;;22.48;20.23;;;;;;;3.12;71.36;98515.82;125465;1124;24633;-76
2021/01/24 03:15:47;;;;;;;24.67;22.07;;;;;;;3.11;70.96;98514.20;125672;1124;22473;-77
2021/01/24 03:18:21;;;;;;;23.05;20.57;;;;;;;3.10;70.73;98508.17;125483;1126;22435;-76
2021/01/24 03:20:52;;;;;;;24.60;21.95;;;;;;;3.11;71.68;98512.40;125628;1124;24303;-76
2021/01/24 03:23:25;;;;;;;26.80;21.60;;;;;;;3.14;70.88;98503.44;125419;1126;22431;-76
2021/01/24 03:25:54;;;;;;;23.38;20.88;;;;;;;3.14;70.73;98500.83;125441;1124;22428;-77
2021/01/24 03:28:23;;;;;;;23.57;21.17;;;;;;;3.12;71.45;98500.98;125463;1126;22518;-76
2021/01/24 03:30:52;;;;;;;27.13;22.42;;;;;;;3.10;71.09;98492.52;125459;1124;24543;-76
2021/01/24 03:33:20;;;;;;;22.90;20.52;;;;;;;3.09;71.59;98490.06;125688;1124;24543;-76
2021/01/24 03:35:48;;;;;;;29.02;22.75;;;;;;;3.06;71.67;98494.62;125457;1127;22406;-76
2021/01/24 03:38:16;;;;;;;26.97;22.53;;;;;;;3.07;71.35;98490.23;125584;1124;22472;-77
2021/01/24 03:40:44;;;;;;;32.50;23.83;;;;;;;3.08;71.58;98488.44;125630;1127;22514;-76
2021/01/24 03:43:12;;;;;;;32.55;23.60;;;;;;;3.05;71.75;98481.75;125444;1124;22469;-76
2021/01/24 03:45:40;;;;;;;31.95;26.05;;;;;;;3.03;71.68;98481.09;125545;1124;22421;-78
2021/01/24 03:48:08;;;;;;;34.40;26.85;;;;;;;3.04;71.06;98483.55;125435;1125;22447;-77
2021/01/24 03:50:36;;;;;;;32.00;26.57;;;;;;;3.06;71.98;98465.11;125585;1124;22428;-77
2021/01/24 03:53:04;;;;;;;35.58;27.73;;;;;;;3.06;71.84;98471.14;125519;1126;22513;-77
2021/01/24 03:55:32;;;;;;;30.12;26.33;;;;;;;3.06;71.77;98468.53;125459;1126;22428;-77
2021/01/24 03:58:00;;;;;;;28.85;25.82;;;;;;;3.06;71.72;98467.72;125478;1127;22441;-77
2021/01/24 04:00:29;;;;;;;29.77;25.92;;;;;;;3.05;71.81;98479.14;125446;1126;22444;-77
2021/01/24 04:02:57;;;;;;;28.80;25.75;;;;;;;3.03;71.81;98479.32;125579;1126;22779;-77
2021/01/24 04:05:25;;;;;;;29.35;26.30;;;;;;;2.99;71.72;98477.19;125594;1126;22646;-77
2021/01/24 04:07:53;;;;;;;30.65;27.60;;;;;;;2.95;71.75;98481.92;125453;1126;22470;-78
2021/01/24 04:10:21;;;;;;;30.40;27.13;;;;;;;2.90;71.50;98485.99;125639;1124;22463;-77
2021/01/24 04:12:49;;;;;;;28.75;25.65;;;;;;;2.88;71.92;98482.75;125640;1124;25045;-79
2021/01/24 04:15:17;;;;;;;31.20;27.93;;;;;;;2.88;72.05;98482.75;125463;1127;22528;-77
2021/01/24 04:17:46;;;;;;;33.98;30.50;;;;;;;2.89;71.95;98479.97;125581;1124;24533;-77
2021/01/24 04:20:14;;;;;;;35.35;31.33;;;;;;;2.92;72.27;98477.03;125422;1124;22696;-77
2021/01/24 04:22:43;;;;;;;34.53;30.92;;;;;;;2.93;72.28;98468.25;125561;1124;22430;-77
2021/01/24 04:25:13;;;;;;;36.48;32.53;;;;;;;2.96;72.12;98467.89;125511;1126;22474;-77
2021/01/24 04:27:42;;;;;;;33.75;30.23;;;;;;;2.98;72.37;98462.53;125481;1126;22574;-77
2021/01/24 04:30:11;;;;;;;34.00;30.30;;;;;;;2.99;71.50;98454.52;125419;1128;22611;-77
2021/01/24 04:32:39;;;;;;;34.05;30.23;;;;;;;2.95;72.15;98455.03;125488;1125;22438;-77
2021/01/24 04:35:08;;;;;;;35.35;31.55;;;;;;;2.91;71.76;98456.34;125417;1125;24545;-77
2021/01/24 04:37:36;;;;;;;38.35;34.18;;;;;;;2.90;72.29;98462.52;125676;1126;22412;-77
2021/01/24 04:40:06;;;;;;;34.48;30.88;;;;;;;2.87;71.73;98449.84;125609;1126;22428;-77
2021/01/24 04:42:35;;;;;;;35.13;31.20;;;;;;;2.84;72.19;98461.41;125503;1125;22570;-77
2021/01/24 04:45:06;;;;;;;34.15;28.80;;;;;;;2.82;71.95;98451.13;125426;1126;25032;-77
2021/01/24 04:47:40;;;;;;;29.75;25.35;;;;;;;2.81;71.82;98462.55;125530;1124;24566;-77
2021/01/24 04:50:09;;;;;;;30.37;25.68;;;;;;;2.76;72.41;98456.99;125500;1127;22421;-77
2021/01/24 04:52:37;;;;;;;33.00;25.47;;;;;;;2.74;71.61;98452.94;125412;1124;24559;-77
2021/01/24 04:55:06;;;;;;;27.02;23.67;;;;;;;2.73;71.92;98464.33;125518;1124;22473;-77
2021/01/24 04:57:36;;;;;;;25.72;21.77;;;;;;;2.74;71.67;98452.94;125521;1124;22525;-78
2021/01/24 05:00:08;;;;;;;22.75;20.35;;;;;;;2.74;71.95;98455.55;125436;1127;22432;-77
2021/01/24 05:02:37;;;;;;;27.22;23.32;;;;;;;2.75;72.74;98446.74;125440;1127;22424;-77
2021/01/24 05:05:06;;;;;;;27.90;24.12;;;;;;;2.75;71.83;98442.34;125669;1125;22421;-77
2021/01/24 05:07:35;;;;;;;28.38;25.32;;;;;;;2.77;72.66;98440.39;125388;1124;24549;-77
2021/01/24 05:10:04;;;;;;;29.82;26.07;;;;;;;2.78;72.07;98442.01;125489;1126;22469;-76
2021/01/24 05:12:32;;;;;;;32.63;26.83;;;;;;;2.81;72.27;98446.09;125441;1124;24559;-76
2021/01/24 05:15:07;;;;;;;34.88;28.42;;;;;;;2.83;72.83;98444.95;125456;1124;22425;-76
2021/01/24 05:17:56;;;;;;;35.98;29.00;;;;;;;2.85;72.42;98441.36;125455;1126;22425;-76
2021/01/24 05:20:30;;;;;;;32.60;27.73;;;;;;;2.83;71.98;98444.11;125466;1128;22414;-76
2021/01/24 05:23:02;;;;;;;34.75;26.87;;;;;;;2.82;72.14;98445.10;125401;1126;23056;-76
2021/01/24 05:25:32;;;;;;;28.52;25.55;;;;;;;2.83;72.27;98450.17;125522;1126;22501;-76
2021/01/24 05:28:22;;;;;;;31.60;27.07;;;;;;;2.82;72.57;98442.49;125637;1124;22433;-76
2021/01/24 05:31:01;;;;;;;33.90;28.25;;;;;;;2.80;72.73;98444.47;125640;1125;22421;-76
2021/01/24 05:33:30;;;;;;;29.95;26.80;;;;;;;2.75;72.70;98442.34;125666;1126;22428;-76
2021/01/24 05:35:58;;;;;;;31.37;28.17;;;;;;;2.74;72.35;98440.72;125471;1126;22424;-76
2021/01/24 05:38:27;;;;;;;32.45;29.02;;;;;;;2.76;72.76;98437.93;125608;1124;22425;-76
2021/01/24 05:41:01;;;;;;;36.93;33.25;;;;;;;2.77;72.95;98435.17;125643;1124;22424;-76
2021/01/24 05:43:44;;;;;;;39.30;35.43;;;;;;;2.77;72.92;98440.39;125417;1126;24294;-76
2021/01/24 05:46:14;;;;;;;38.67;34.65;;;;;;;2.78;72.55;98446.41;125512;1126;22443;-76
2021/01/24 05:48:50;;;;;;;36.80;32.90;;;;;;;2.77;72.53;98444.80;125512;1124;22424;-76
2021/01/24 05:51:18;;;;;;;37.67;33.60;;;;;;;2.78;72.60;98449.02;125676;1124;24613;-76
2021/01/24 05:53:49;;;;;;;37.65;33.50;;;;;;;2.78;72.90;98446.41;125631;1124;22447;-76
2021/01/24 05:56:21;;;;;;;40.25;35.03;;;;;;;2.78;72.37;98436.80;125694;1125;22422;-76
2021/01/24 05:59:07;;;;;;;37.90;33.90;;;;;;;2.77;72.89;98440.39;125456;1124;22395;-76
2021/01/24 06:01:36;;;;;;;36.63;32.65;;;;;;;2.76;72.81;98440.53;125678;1127;22440;-76
2021/01/24 06:04:05;;;;;;;34.83;30.60;;;;;;;2.75;72.70;98441.52;125416;1126;22416;-76
2021/01/24 06:06:33;;;;;;;32.42;29.32;;;;;;;2.74;72.03;98451.15;125436;1126;22425;-77
2021/01/24 06:09:01;;;;;;;33.40;29.92;;;;;;;2.73;72.68;98448.69;125426;1126;22418;-76
2021/01/24 06:11:31;;;;;;;33.78;30.27;;;;;;;2.72;73.06;98454.89;125397;1124;24361;-76
2021/01/24 06:14:02;;;;;;;35.50;31.90;;;;;;;2.70;72.91;98452.45;125480;1124;24390;-76
2021/01/24 06:16:36;;;;;;;32.05;28.67;;;;;;;2.71;72.97;98458.48;125609;1124;22419;-76
2021/01/24 06:19:12;;;;;;;31.37;28.07;;;;;;;2.69;72.65;98456.02;125526;1124;22429;-75
2021/01/24 06:21:52;;;;;;;30.20;27.20;;;;;;;2.69;72.24;98453.42;125617;1124;24585;-75
2021/01/24 06:24:35;;;;;;;37.40;33.55;;;;;;;2.69;72.61;98455.21;125663;1124;23348;-75
2021/01/24 06:27:05;;;;;;;;;;;;;;;2.63;72.71;98456.67;125584;1124;24536;-75
2021/01/24 06:29:35;;;;;;;31.87;28.57;;;;;;;2.61;72.56;98447.41;125504;1124;21318;-75
2021/01/24 06:32:04;;;;;;;31.20;27.90;;;;;;;2.59;72.35;98439.73;125397;1124;22418;-75
2021/01/24 06:34:36;;;;;;;33.73;28.85;;;;;;;2.59;73.09;98431.92;125428;1126;22417;-75
2021/01/24 06:37:08;;;;;;;31.80;28.50;;;;;;;2.58;73.26;98430.30;125464;1124;22438;-76
2021/01/24 06:39:54;;;;;;;27.37;24.43;;;;;;;2.56;73.13;98429.63;125617;1124;25324;-76
2021/01/24 06:42:34;;;;;;;32.48;26.57;;;;;;;2.55;73.37;98430.63;125559;1127;22424;-76
2021/01/24 06:45:06;;;;;;;28.67;25.60;;;;;;;2.54;72.50;98436.82;125575;1124;24616;-77
2021/01/24 06:47:37;;;;;;;28.15;25.30;;;;;;;2.52;73.18;98439.58;125580;1125;22440;-77
2021/01/24 06:50:47;;;;;;;30.23;27.20;;;;;;;2.51;73.45;98448.38;125630;1124;22422;-76
2021/01/24 06:53:18;;;;;;;33.92;30.10;;;;;;;2.47;73.10;98434.05;125415;1124;22415;-74
2021/01/24 06:55:53;;;;;;;32.80;28.10;;;;;;;2.45;73.55;98430.78;125484;1125;22526;-75
2021/01/24 06:58:47;;;;;;;30.15;26.93;;;;;;;2.42;72.75;98446.74;125551;1124;24543;-74
2021/01/24 07:01:34;;;;;;;37.55;30.68;;;;;;;2.40;73.80;98438.29;125516;1124;24533;-76
2021/01/24 07:04:20;;;;;;;31.50;27.58;;;;;;;2.39;73.83;98433.22;125485;1126;22418;-75
2021/01/24 07:06:49;;;;;;;40.15;31.27;;;;;;;2.34;73.51;98438.94;125494;1124;22475;-76
2021/01/24 07:09:29;;;;;;;42.17;30.12;;;;;;;2.32;73.21;98449.50;125635;1127;22436;-79
2021/01/24 07:12:07;;;;;;;33.65;27.35;;;;;;;2.29;73.77;98444.61;125524;1124;25049;-76
2021/01/24 07:14:35;;;;;;;34.97;29.60;;;;;;;2.30;73.23;98455.84;125611;1127;22428;-73
2021/01/24 07:17:06;;;;;;;33.50;28.77;;;;;;;2.31;73.65;98452.28;125528;1124;22424;-77
2021/01/24 07:19:48;;;;;;;36.45;29.63;;;;;;;2.32;74.16;98456.50;125529;1126;22422;-75
2021/01/24 07:22:21;;;;;;;37.58;29.87;;;;;;;2.32;73.33;98457.31;125494;1126;22432;-75
2021/01/24 07:24:52;;;;;;;41.75;35.40;;;;;;;2.32;74.21;98456.50;125468;1127;22748;-75
2021/01/24 07:27:28;;;;;;;39.30;33.75;;;;;;;2.30;73.57;98459.29;125450;1126;22414;-76
2021/01/24 07:29:57;;;;;;;39.38;35.15;;;;;;;2.30;73.76;98456.69;125530;1126;22415;-76
2021/01/24 07:32:29;;;;;;;34.13;30.67;;;;;;;2.29;74.15;98452.42;125333;1126;22422;-76
2021/01/24 07:34:57;;;;;;;37.65;31.93;;;;;;;2.25;74.21;98450.31;125310;1124;24745;-77
2021/01/24 07:37:25;;;;;;;36.60;32.83;;;;;;;2.20;73.78;98442.16;125405;1126;22425;-76
2021/01/24 07:39:54;;;;;;;35.78;32.08;;;;;;;2.19;73.65;98451.77;125370;1127;22425;-75
2021/01/24 07:42:22;;;;;;;40.10;35.90;;;;;;;2.20;74.22;98456.02;125350;1127;22419;-75
2021/01/24 07:44:50;;;;;;;41.40;36.93;;;;;;;2.20;74.54;98445.60;125434;1128;22440;-75
2021/01/24 07:47:18;;;;;;;39.18;35.25;;;;;;;2.21;73.99;98447.22;125401;1124;22420;-78
2021/01/24 07:49:47;;;;;;;37.03;33.45;;;;;;;2.25;73.97;98445.91;125637;1126;22746;-76
2021/01/24 07:52:17;;;;;;;37.08;33.13;;;;;;;2.27;74.29;98446.58;125456;1126;22718;-77
2021/01/24 07:54:46;;;;;;;37.45;33.55;;;;;;;2.30;74.31;98448.02;125513;1124;25003;-78
2021/01/24 07:57:14;;;;;;;37.23;33.23;;;;;;;2.30;74.29;98443.66;125433;1126;22415;-77
2021/01/24 07:59:43;;;;;;;32.30;28.80;;;;;;;2.33;74.11;98450.31;125611;1126;22426;-76
2021/01/24 08:02:12;;;;;;;43.68;39.08;;;;;;;2.34;74.17;98452.77;125446;1126;22406;-77
2021/01/24 08:04:42;;;;;;;40.78;36.63;;;;;;;2.36;74.55;98453.41;125434;1126;22469;-76
2021/01/24 08:07:10;;;;;;;37.58;33.58;;;;;;;2.36;74.75;98455.20;125385;1127;22422;-76
2021/01/24 08:09:39;;;;;;;42.20;37.78;;;;;;;2.38;74.88;98447.23;125533;1127;22443;-76
2021/01/24 08:12:12;;;;;;;40.35;36.20;;;;;;;2.42;74.84;98448.53;125650;1126;22435;-76
2021/01/24 08:14:42;;;;;;;45.03;40.17;;;;;;;2.46;74.29;98439.41;125609;1124;22419;-77
2021/01/24 08:17:16;;;;;;;42.83;38.42;;;;;;;2.52;74.23;98438.77;125889;1126;22435;-76
2021/01/24 08:19:45;;;;;;;41.28;35.13;;;;;;;2.56;75.06;98440.06;125767;1124;23620;-77
2021/01/24 08:22:13;;;;;;;31.02;27.73;;;;;;;2.59;74.72;98440.55;125610;1124;24604;-76
2021/01/24 08:24:43;;;;;;;30.55;27.35;;;;;;;2.65;74.62;98443.49;125542;1124;22884;-76
2021/01/24 08:27:12;;;;;;;32.47;28.80;;;;;;;2.65;74.96;98441.70;125477;1126;22519;-76
2021/01/24 08:29:40;;;;;;;31.33;28.13;;;;;;;2.70;75.06;98433.37;125455;1127;22420;-75
2021/01/24 08:32:08;;;;;;;34.23;30.40;;;;;;;2.72;74.79;98429.63;125639;1124;22425;-75
2021/01/24 08:34:37;;;;;;;36.75;31.55;;;;;;;2.76;74.57;98432.72;125510;1124;22721;-76
2021/01/24 08:37:05;;;;;;;41.85;37.35;;;;;;;2.77;74.80;98431.76;125512;1124;22427;-74
2021/01/24 08:39:34;;;;;;;41.10;36.53;;;;;;;2.81;74.23;98438.27;125520;1126;22425;-76
2021/01/24 08:42:07;;;;;;;43.05;35.13;;;;;;;2.85;74.66;98433.53;125692;1124;22443;-75
2021/01/24 08:44:35;;;;;;;39.08;34.92;;;;;;;2.89;74.89;98434.83;125658;1124;22893;-76
2021/01/24 08:47:05;;;;;;;41.02;35.68;;;;;;;2.90;74.05;98439.05;125494;1126;22443;-75
2021/01/24 08:49:36;;;;;;;39.50;34.45;;;;;;;2.90;74.60;98439.89;125603;1127;23364;-75
2021/01/24 08:52:04;;;;;;;39.90;35.63;;;;;;;2.93;74.00;98441.33;125564;1126;22423;-75
2021/01/24 08:54:35;;;;;;;38.83;34.80;;;;;;;2.97;74.66;98437.44;125585;1126;22416;-75
2021/01/24 08:57:09;;;;;;;35.17;31.48;;;;;;;2.93;74.26;98439.56;125607;1126;22438;-75
2021/01/24 08:59:50;;;;;;;36.60;32.65;;;;;;;2.91;73.89;98436.30;125477;1125;22493;-75
2021/01/24 09:02:33;;;;;;;33.67;30.23;;;;;;;2.91;74.19;98430.27;125585;1124;22425;-76
2021/01/24 09:05:13;;;;;;;38.58;34.67;;;;;;;2.88;74.29;98430.59;125623;1124;22437;-75
2021/01/24 09:07:47;;;;;;;42.65;34.13;;;;;;;2.85;73.73;98430.92;125470;1126;22456;-75
2021/01/24 09:10:24;;;;;;;33.38;29.95;;;;;;;2.86;73.58;98435.15;125540;1124;22730;-74
2021/01/24 09:12:55;;;;;;;34.98;31.37;;;;;;;2.86;74.07;98442.98;125536;1126;22417;-74
2021/01/24 09:15:26;;;;;;;33.10;29.60;;;;;;;2.86;73.96;98432.55;125659;1124;22507;-75
2021/01/24 09:17:56;;;;;;;38.95;35.00;;;;;;;2.86;73.66;98440.37;125607;1124;22453;-75
2021/01/24 09:20:27;;;;;;;38.85;34.85;;;;;;;2.84;73.28;98432.72;125493;1124;22437;-76
2021/01/24 09:22:56;;;;;;;41.75;36.98;;;;;;;2.82;74.11;98438.09;125535;1124;24260;-75
2021/01/24 09:25:25;;;;;;;42.55;37.85;;;;;;;2.82;73.32;98432.06;125618;1126;22976;-75
2021/01/24 09:27:53;;;;;;;44.88;39.88;;;;;;;2.81;74.07;98438.27;125464;1124;24266;-74
2021/01/24 09:30:22;;;;;;;53.38;46.25;;;;;;;2.74;73.97;98430.29;125633;1124;24539;-75
2021/01/24 09:32:50;;;;;;;47.90;42.50;;;;;;;2.69;73.43;98427.34;125624;1126;22435;-75
2021/01/24 09:35:18;;;;;;;54.23;43.40;;;;;;;2.66;73.31;98432.08;125502;1124;22435;-75
2021/01/24 09:37:48;;;;;;;49.93;43.73;;;;;;;2.66;74.26;98432.88;125579;1126;22863;-75
2021/01/24 09:40:16;;;;;;;54.42;45.83;;;;;;;2.67;73.68;98437.14;125734;1124;24216;-76
2021/01/24 09:42:44;;;;;;;55.85;47.98;;;;;;;2.67;73.55;98433.72;125547;1126;22519;-75
2021/01/24 09:45:13;;;;;;;69.42;58.70;;;;;;;2.66;73.99;98437.29;125491;1125;22422;-75
2021/01/24 09:47:41;;;;;;;65.70;57.60;;;;;;;2.64;73.94;98434.86;125584;1122;24312;-76
2021/01/24 09:50:10;;;;;;;63.55;55.43;;;;;;;2.63;73.97;98441.03;125599;1124;22437;-76
2021/01/24 09:52:39;;;;;;;60.05;51.68;;;;;;;2.61;74.10;98443.00;125602;1127;23116;-75
2021/01/24 09:55:08;;;;;;;66.37;57.20;;;;;;;2.64;73.91;98442.68;125411;1124;24560;-76
2021/01/24 09:57:37;;;;;;;68.10;60.50;;;;;;;2.63;74.36;98442.83;125583;1124;22432;-76
2021/01/24 10:00:07;;;;;;;66.35;58.38;;;;;;;2.64;73.56;98449.69;125719;1126;23221;-83
2021/01/24 10:02:41;;;;;;;75.47;67.10;;;;;;;2.62;73.88;98444.63;125777;1129;22443;-83
2021/01/24 10:05:12;;;;;;;78.65;70.10;;;;;;;2.68;74.77;98438.77;125669;1124;22423;-83
2021/01/24 10:07:41;;;;;;;96.82;86.25;;;;;;;2.74;74.55;98447.73;125565;1126;22812;-77
2021/01/24 10:10:11;;;;;;;96.67;84.03;;;;;;;2.79;73.97;98443.63;125616;1126;22516;-77
2021/01/24 10:12:39;;;;;;;101.20;90.20;;;;;;;2.83;74.32;98438.89;125519;1124;22423;-76
2021/01/24 10:15:08;;;;;;;91.17;78.67;;;;;;;2.89;74.79;98432.22;125580;1126;22419;-76
2021/01/24 10:17:36;;;;;;;84.92;75.62;;;;;;;2.93;73.92;98429.13;125667;1124;22425;-76
2021/01/24 10:20:07;;;;;;;85.35;71.07;;;;;;;2.95;74.23;98426.34;125515;1124;22522;-76
2021/01/24 10:22:36;;;;;;;82.53;71.87;;;;;;;2.95;74.05;98434.17;125582;1125;22541;-76
2021/01/24 10:25:04;;;;;;;85.60;72.47;;;;;;;2.95;74.02;98428.95;125630;1124;22416;-76
2021/01/24 10:27:33;;;;;;;97.92;82.78;;;;;;;2.94;74.07;98433.36;125537;1124;24363;-75
2021/01/24 10:30:02;;;;;;;95.80;82.78;;;;;;;2.94;73.73;98435.16;125387;1127;22434;-76
2021/01/24 10:32:30;;;;;;;88.30;78.97;;;;;;;2.95;73.34;98421.13;125524;1124;24348;-76
2021/01/24 10:35:01;;;;;;;106.07;93.62;;;;;;;2.93;73.99;98423.07;125597;1124;22449;-76
2021/01/24 10:37:30;;;;;;;117.72;100.35;;;;;;;2.93;73.34;98421.30;125406;1124;25007;-76
2021/01/24 10:39:58;;;;;;;122.42;103.35;;;;;;;2.98;73.57;98429.43;125558;1124;22434;-76
2021/01/24 10:42:27;;;;;;;119.50;100.97;;;;;;;2.98;73.67;98423.41;125573;1126;22435;-76
2021/01/24 10:44:55;;;;;;;123.28;104.75;;;;;;;3.01;74.40;98423.88;125515;1124;22765;-76
2021/01/24 10:47:24;;;;;;;127.07;108.70;;;;;;;3.07;73.77;98422.41;125545;1126;22440;-76
2021/01/24 10:49:53;;;;;;;140.03;114.67;;;;;;;3.13;73.95;98421.72;125674;1124;22449;-81
2021/01/24 10:52:21;;;;;;;127.65;102.90;;;;;;;3.18;73.75;98426.45;125582;1124;22724;-76
2021/01/24 10:54:49;;;;;;;118.72;97.47;;;;;;;3.22;74.26;98425.94;125652;1124;22521;-76
2021/01/24 10:57:17;;;;;;;116.85;96.37;;;;;;;3.27;73.86;98425.45;125474;1126;22474;-75
2021/01/24 10:59:45;;;;;;;115.55;93.10;;;;;;;3.30;73.98;98425.93;125534;1126;22464;-75
2021/01/24 11:02:14;;;;;;;103.77;83.90;;;;;;;3.35;74.03;98421.99;125558;1124;24641;-76
2021/01/24 11:04:42;;;;;;;91.50;75.85;;;;;;;3.36;74.27;98426.22;125520;1124;22414;-77
2021/01/24 11:07:10;;;;;;;87.20;73.70;;;;;;;3.39;73.74;98426.70;125470;1126;22724;-76
2021/01/24 11:09:39;;;;;;;83.80;72.05;;;;;;;3.41;73.96;98426.55;125637;1126;22519;-77
2021/01/24 11:12:07;;;;;;;67.92;60.15;;;;;;;3.42;73.59;98426.36;125781;1124;22437;-77
2021/01/24 11:14:35;;;;;;;75.08;62.78;;;;;;;3.43;73.58;98420.17;125535;1124;24316;-73
2021/01/24 11:17:04;;;;;;;94.97;72.42;;;;;;;3.49;74.01;98413.45;125481;1126;22519;-75
2021/01/24 11:19:32;;;;;;;83.00;69.05;;;;;;;3.53;74.22;98415.56;125509;1124;24563;-76
2021/01/24 11:22:00;;;;;;;80.67;66.50;;;;;;;3.66;74.29;98407.16;125617;1124;22435;-76
2021/01/24 11:24:29;;;;;;;80.10;67.10;;;;;;;3.83;74.76;98409.69;125462;1126;24607;-76
2021/01/24 11:26:58;;;;;;;77.80;66.12;;;;;;;3.95;74.46;98409.13;125414;1126;22534;-76
2021/01/24 11:29:27;;;;;;;69.85;57.58;;;;;;;4.03;74.39;98397.80;125426;1124;25141;-77
2021/01/24 11:31:55;;;;;;;74.62;61.37;;;;;;;4.12;73.34;98409.83;125512;1124;22441;-75
2021/01/24 11:34:24;;;;;;;71.20;56.48;;;;;;;4.13;73.40;98405.41;125591;1124;24632;-75